sensor_id;sensor_type;location;lat;lon;timestamp;P1;durP1;ratioP1;P2;durP2;ratioP2
71087;SDS011;58747;50.674;4.616;2022-07-23T00:01:32;14.67;;;10.33;;
71087;SDS011;58747;50.674;4.616;2022-07-23T00:03:58;13.73;;;9.80;;
71087;SDS011;58747;50.674;4.616;2022-07-23T00:06:23;13.43;;;10.25;;
71087;SDS011;58747;50.674;4.616;2022-07-23T00:08:49;14.43;;;10.47;;
71087;SDS011;58747;50.674;4.616;2022-07-23T00:11:14;14.67;;;10.63;;
71087;SDS011;58747;50.674;4.616;2022-07-23T00:13:40;15.05;;;10.30;;
71087;SDS011;58747;50.674;4.616;2022-07-23T00:16:05;13.97;;;10.23;;
71087;SDS011;58747;50.674;4.616;2022-07-23T00:18:31;15.57;;;10.80;;
71087;SDS011;58747;50.674;4.616;2022-07-23T00:20:56;14.33;;;10.53;;
71087;SDS011;58747;50.674;4.616;2022-07-23T00:23:22;16.60;;;11.18;;
71087;SDS011;58747;50.674;4.616;2022-07-23T00:25:47;14.23;;;10.40;;
71087;SDS011;58747;50.674;4.616;2022-07-23T00:28:12;14.13;;;10.87;;
71087;SDS011;58747;50.674;4.616;2022-07-23T00:30:38;13.53;;;10.60;;
71087;SDS011;58747;50.674;4.616;2022-07-23T00:33:04;15.07;;;11.40;;
71087;SDS011;58747;50.674;4.616;2022-07-23T00:35:32;17.98;;;12.82;;
71087;SDS011;58747;50.674;4.616;2022-07-23T00:38:00;14.75;;;10.77;;
71087;SDS011;58747;50.674;4.616;2022-07-23T00:40:27;13.98;;;10.48;;
71087;SDS011;58747;50.674;4.616;2022-07-23T00:42:53;18.30;;;12.38;;
71087;SDS011;58747;50.674;4.616;2022-07-23T00:45:19;14.53;;;10.63;;
71087;SDS011;58747;50.674;4.616;2022-07-23T00:47:44;18.23;;;11.87;;
71087;SDS011;58747;50.674;4.616;2022-07-23T00:50:10;18.30;;;11.73;;
71087;SDS011;58747;50.674;4.616;2022-07-23T00:52:37;17.43;;;11.47;;
71087;SDS011;58747;50.674;4.616;2022-07-23T00:55:04;20.05;;;12.55;;
71087;SDS011;58747;50.674;4.616;2022-07-23T00:57:30;21.25;;;13.50;;
71087;SDS011;58747;50.674;4.616;2022-07-23T00:59:56;18.00;;;12.15;;
71087;SDS011;58747;50.674;4.616;2022-07-23T01:02:23;17.88;;;11.55;;
71087;SDS011;58747;50.674;4.616;2022-07-23T01:04:49;18.30;;;12.17;;
71087;SDS011;58747;50.674;4.616;2022-07-23T01:07:14;18.60;;;12.60;;
71087;SDS011;58747;50.674;4.616;2022-07-23T01:09:40;18.80;;;12.00;;
71087;SDS011;58747;50.674;4.616;2022-07-23T01:12:05;19.17;;;12.50;;
71087;SDS011;58747;50.674;4.616;2022-07-23T01:14:31;18.08;;;12.25;;
71087;SDS011;58747;50.674;4.616;2022-07-23T01:16:57;19.70;;;12.23;;
71087;SDS011;58747;50.674;4.616;2022-07-23T01:19:22;17.45;;;11.32;;
71087;SDS011;58747;50.674;4.616;2022-07-23T01:21:48;21.40;;;12.33;;
71087;SDS011;58747;50.674;4.616;2022-07-23T01:24:16;21.05;;;12.55;;
71087;SDS011;58747;50.674;4.616;2022-07-23T01:26:45;18.00;;;11.03;;
71087;SDS011;58747;50.674;4.616;2022-07-23T01:29:11;17.88;;;12.52;;
71087;SDS011;58747;50.674;4.616;2022-07-23T01:31:37;19.20;;;12.57;;
71087;SDS011;58747;50.674;4.616;2022-07-23T01:34:02;20.50;;;13.53;;
71087;SDS011;58747;50.674;4.616;2022-07-23T01:36:29;19.58;;;12.73;;
71087;SDS011;58747;50.674;4.616;2022-07-23T01:38:54;18.90;;;13.83;;
71087;SDS011;58747;50.674;4.616;2022-07-23T01:41:20;19.57;;;11.93;;
71087;SDS011;58747;50.674;4.616;2022-07-23T01:43:45;20.08;;;12.10;;
71087;SDS011;58747;50.674;4.616;2022-07-23T01:46:11;17.47;;;11.57;;
71087;SDS011;58747;50.674;4.616;2022-07-23T01:48:37;17.05;;;11.48;;
71087;SDS011;58747;50.674;4.616;2022-07-23T01:51:02;18.43;;;11.97;;
71087;SDS011;58747;50.674;4.616;2022-07-23T01:53:28;16.33;;;11.57;;
71087;SDS011;58747;50.674;4.616;2022-07-23T01:55:56;16.60;;;11.77;;
71087;SDS011;58747;50.674;4.616;2022-07-23T01:58:22;19.63;;;12.30;;
71087;SDS011;58747;50.674;4.616;2022-07-23T02:00:47;17.03;;;11.63;;
71087;SDS011;58747;50.674;4.616;2022-07-23T02:03:12;16.83;;;11.27;;
71087;SDS011;58747;50.674;4.616;2022-07-23T02:05:37;16.00;;;11.87;;
71087;SDS011;58747;50.674;4.616;2022-07-23T02:08:03;13.45;;;10.75;;
71087;SDS011;58747;50.674;4.616;2022-07-23T02:10:28;16.20;;;11.37;;
71087;SDS011;58747;50.674;4.616;2022-07-23T02:12:54;17.77;;;11.93;;
71087;SDS011;58747;50.674;4.616;2022-07-23T02:15:19;17.10;;;11.53;;
71087;SDS011;58747;50.674;4.616;2022-07-23T02:17:45;15.00;;;10.85;;
71087;SDS011;58747;50.674;4.616;2022-07-23T02:20:10;16.77;;;10.80;;
71087;SDS011;58747;50.674;4.616;2022-07-23T02:22:36;20.13;;;11.43;;
71087;SDS011;58747;50.674;4.616;2022-07-23T02:25:03;19.93;;;11.63;;
71087;SDS011;58747;50.674;4.616;2022-07-23T02:27:29;16.85;;;11.50;;
71087;SDS011;58747;50.674;4.616;2022-07-23T02:29:54;17.63;;;11.03;;
71087;SDS011;58747;50.674;4.616;2022-07-23T02:32:20;17.60;;;11.70;;
71087;SDS011;58747;50.674;4.616;2022-07-23T02:34:48;19.25;;;11.80;;
71087;SDS011;58747;50.674;4.616;2022-07-23T02:37:14;21.85;;;12.63;;
71087;SDS011;58747;50.674;4.616;2022-07-23T02:39:39;19.67;;;12.73;;
71087;SDS011;58747;50.674;4.616;2022-07-23T02:42:05;17.63;;;11.43;;
71087;SDS011;58747;50.674;4.616;2022-07-23T02:44:30;16.00;;;11.77;;
71087;SDS011;58747;50.674;4.616;2022-07-23T02:46:56;15.63;;;10.90;;
71087;SDS011;58747;50.674;4.616;2022-07-23T02:49:21;17.97;;;12.23;;
71087;SDS011;58747;50.674;4.616;2022-07-23T02:51:46;17.20;;;11.40;;
71087;SDS011;58747;50.674;4.616;2022-07-23T02:54:12;16.07;;;10.53;;
71087;SDS011;58747;50.674;4.616;2022-07-23T02:56:37;14.82;;;10.98;;
71087;SDS011;58747;50.674;4.616;2022-07-23T02:59:03;17.63;;;11.20;;
71087;SDS011;58747;50.674;4.616;2022-07-23T03:01:28;14.87;;;10.57;;
71087;SDS011;58747;50.674;4.616;2022-07-23T03:03:53;14.90;;;10.73;;
71087;SDS011;58747;50.674;4.616;2022-07-23T03:06:19;16.77;;;11.73;;
71087;SDS011;58747;50.674;4.616;2022-07-23T03:08:44;22.60;;;12.03;;
71087;SDS011;58747;50.674;4.616;2022-07-23T03:11:09;19.03;;;12.57;;
71087;SDS011;58747;50.674;4.616;2022-07-23T03:13:38;18.17;;;11.77;;
71087;SDS011;58747;50.674;4.616;2022-07-23T03:16:04;16.83;;;11.80;;
71087;SDS011;58747;50.674;4.616;2022-07-23T03:18:30;16.30;;;12.03;;
71087;SDS011;58747;50.674;4.616;2022-07-23T03:20:56;18.07;;;11.17;;
71087;SDS011;58747;50.674;4.616;2022-07-23T03:23:21;17.60;;;12.40;;
71087;SDS011;58747;50.674;4.616;2022-07-23T03:25:46;18.73;;;11.70;;
71087;SDS011;58747;50.674;4.616;2022-07-23T03:28:13;22.83;;;12.70;;
71087;SDS011;58747;50.674;4.616;2022-07-23T03:30:40;18.77;;;12.10;;
71087;SDS011;58747;50.674;4.616;2022-07-23T03:33:06;17.75;;;11.30;;
71087;SDS011;58747;50.674;4.616;2022-07-23T03:35:31;20.00;;;11.80;;
71087;SDS011;58747;50.674;4.616;2022-07-23T03:37:57;17.47;;;11.33;;
71087;SDS011;58747;50.674;4.616;2022-07-23T03:40:22;15.43;;;11.40;;
71087;SDS011;58747;50.674;4.616;2022-07-23T03:42:47;18.37;;;11.50;;
71087;SDS011;58747;50.674;4.616;2022-07-23T03:45:13;16.57;;;11.40;;
71087;SDS011;58747;50.674;4.616;2022-07-23T03:47:38;18.90;;;11.43;;
71087;SDS011;58747;50.674;4.616;2022-07-23T03:50:04;17.45;;;11.90;;
71087;SDS011;58747;50.674;4.616;2022-07-23T03:52:30;16.10;;;11.97;;
71087;SDS011;58747;50.674;4.616;2022-07-23T03:54:55;17.43;;;12.30;;
71087;SDS011;58747;50.674;4.616;2022-07-23T03:57:20;15.02;;;10.82;;
71087;SDS011;58747;50.674;4.616;2022-07-23T03:59:46;16.93;;;11.50;;
71087;SDS011;58747;50.674;4.616;2022-07-23T04:02:11;15.93;;;10.60;;
71087;SDS011;58747;50.674;4.616;2022-07-23T04:04:36;17.73;;;10.83;;
71087;SDS011;58747;50.674;4.616;2022-07-23T04:07:02;18.47;;;11.30;;
71087;SDS011;58747;50.674;4.616;2022-07-23T04:09:27;16.60;;;10.30;;
71087;SDS011;58747;50.674;4.616;2022-07-23T04:11:52;14.60;;;10.40;;
71087;SDS011;58747;50.674;4.616;2022-07-23T04:14:18;15.97;;;9.90;;
71087;SDS011;58747;50.674;4.616;2022-07-23T04:16:43;17.10;;;11.67;;
71087;SDS011;58747;50.674;4.616;2022-07-23T04:19:08;16.40;;;10.97;;
71087;SDS011;58747;50.674;4.616;2022-07-23T04:21:34;16.27;;;11.07;;
71087;SDS011;58747;50.674;4.616;2022-07-23T04:23:59;17.53;;;11.53;;
71087;SDS011;58747;50.674;4.616;2022-07-23T04:26:25;17.47;;;10.90;;
71087;SDS011;58747;50.674;4.616;2022-07-23T04:28:50;17.37;;;11.07;;
71087;SDS011;58747;50.674;4.616;2022-07-23T04:31:15;17.77;;;11.87;;
71087;SDS011;58747;50.674;4.616;2022-07-23T04:33:41;18.37;;;11.90;;
71087;SDS011;58747;50.674;4.616;2022-07-23T04:36:06;17.08;;;10.93;;
71087;SDS011;58747;50.674;4.616;2022-07-23T04:38:32;16.77;;;10.77;;
71087;SDS011;58747;50.674;4.616;2022-07-23T04:40:57;19.43;;;12.67;;
71087;SDS011;58747;50.674;4.616;2022-07-23T04:43:23;18.85;;;12.30;;
71087;SDS011;58747;50.674;4.616;2022-07-23T04:45:48;17.27;;;12.03;;
71087;SDS011;58747;50.674;4.616;2022-07-23T04:48:14;18.50;;;12.52;;
71087;SDS011;58747;50.674;4.616;2022-07-23T04:50:39;19.37;;;11.23;;
71087;SDS011;58747;50.674;4.616;2022-07-23T04:53:05;19.07;;;12.33;;
71087;SDS011;58747;50.674;4.616;2022-07-23T04:55:30;19.03;;;11.60;;
71087;SDS011;58747;50.674;4.616;2022-07-23T04:57:55;18.27;;;11.67;;
71087;SDS011;58747;50.674;4.616;2022-07-23T05:00:21;18.83;;;12.10;;
71087;SDS011;58747;50.674;4.616;2022-07-23T05:02:46;19.87;;;12.63;;
71087;SDS011;58747;50.674;4.616;2022-07-23T05:05:12;20.43;;;13.57;;
71087;SDS011;58747;50.674;4.616;2022-07-23T05:07:37;17.33;;;12.23;;
71087;SDS011;58747;50.674;4.616;2022-07-23T05:10:02;20.90;;;11.80;;
71087;SDS011;58747;50.674;4.616;2022-07-23T05:12:28;19.07;;;12.23;;
71087;SDS011;58747;50.674;4.616;2022-07-23T05:14:53;20.60;;;11.43;;
71087;SDS011;58747;50.674;4.616;2022-07-23T05:17:19;17.70;;;11.83;;
71087;SDS011;58747;50.674;4.616;2022-07-23T05:19:44;19.40;;;12.50;;
71087;SDS011;58747;50.674;4.616;2022-07-23T05:22:10;18.30;;;12.37;;
71087;SDS011;58747;50.674;4.616;2022-07-23T05:24:35;21.03;;;13.20;;
71087;SDS011;58747;50.674;4.616;2022-07-23T05:27:00;17.80;;;13.07;;
71087;SDS011;58747;50.674;4.616;2022-07-23T05:29:26;21.13;;;14.07;;
71087;SDS011;58747;50.674;4.616;2022-07-23T05:31:51;24.33;;;14.30;;
71087;SDS011;58747;50.674;4.616;2022-07-23T05:34:16;24.47;;;14.10;;
71087;SDS011;58747;50.674;4.616;2022-07-23T05:36:42;23.00;;;14.90;;
71087;SDS011;58747;50.674;4.616;2022-07-23T05:39:07;21.40;;;14.83;;
71087;SDS011;58747;50.674;4.616;2022-07-23T05:41:32;20.40;;;13.63;;
71087;SDS011;58747;50.674;4.616;2022-07-23T05:43:58;23.20;;;14.30;;
71087;SDS011;58747;50.674;4.616;2022-07-23T05:46:23;22.57;;;14.43;;
71087;SDS011;58747;50.674;4.616;2022-07-23T05:48:49;22.60;;;14.43;;
71087;SDS011;58747;50.674;4.616;2022-07-23T05:51:21;20.53;;;13.80;;
71087;SDS011;58747;50.674;4.616;2022-07-23T05:53:48;20.80;;;13.57;;
71087;SDS011;58747;50.674;4.616;2022-07-23T05:56:13;18.83;;;13.05;;
71087;SDS011;58747;50.674;4.616;2022-07-23T05:58:39;17.58;;;12.48;;
71087;SDS011;58747;50.674;4.616;2022-07-23T06:01:05;15.17;;;11.30;;
71087;SDS011;58747;50.674;4.616;2022-07-23T06:03:30;16.03;;;12.10;;
71087;SDS011;58747;50.674;4.616;2022-07-23T06:05:55;14.03;;;11.50;;
71087;SDS011;58747;50.674;4.616;2022-07-23T06:08:21;13.67;;;10.50;;
71087;SDS011;58747;50.674;4.616;2022-07-23T06:10:46;13.70;;;10.67;;
71087;SDS011;58747;50.674;4.616;2022-07-23T06:13:11;13.20;;;10.37;;
71087;SDS011;58747;50.674;4.616;2022-07-23T06:15:37;13.53;;;10.57;;
71087;SDS011;58747;50.674;4.616;2022-07-23T06:18:02;13.35;;;10.15;;
71087;SDS011;58747;50.674;4.616;2022-07-23T06:20:28;12.93;;;9.57;;
71087;SDS011;58747;50.674;4.616;2022-07-23T06:22:53;11.33;;;9.20;;
71087;SDS011;58747;50.674;4.616;2022-07-23T06:25:18;12.27;;;9.63;;
71087;SDS011;58747;50.674;4.616;2022-07-23T06:27:45;13.65;;;10.70;;
71087;SDS011;58747;50.674;4.616;2022-07-23T06:30:11;11.75;;;10.23;;
71087;SDS011;58747;50.674;4.616;2022-07-23T06:32:37;12.30;;;10.85;;
71087;SDS011;58747;50.674;4.616;2022-07-23T06:35:03;14.87;;;11.70;;
71087;SDS011;58747;50.674;4.616;2022-07-23T06:37:28;11.90;;;9.03;;
71087;SDS011;58747;50.674;4.616;2022-07-23T06:39:54;11.88;;;9.45;;
71087;SDS011;58747;50.674;4.616;2022-07-23T06:42:19;13.57;;;10.47;;
71087;SDS011;58747;50.674;4.616;2022-07-23T06:44:44;14.30;;;10.57;;
71087;SDS011;58747;50.674;4.616;2022-07-23T06:47:10;12.00;;;10.00;;
71087;SDS011;58747;50.674;4.616;2022-07-23T06:49:35;13.50;;;10.47;;
71087;SDS011;58747;50.674;4.616;2022-07-23T06:52:01;11.40;;;9.60;;
71087;SDS011;58747;50.674;4.616;2022-07-23T06:54:26;11.77;;;9.70;;
71087;SDS011;58747;50.674;4.616;2022-07-23T06:56:52;11.63;;;10.53;;
71087;SDS011;58747;50.674;4.616;2022-07-23T06:59:17;11.90;;;9.47;;
71087;SDS011;58747;50.674;4.616;2022-07-23T07:01:42;13.30;;;10.17;;
71087;SDS011;58747;50.674;4.616;2022-07-23T07:04:08;12.75;;;10.93;;
71087;SDS011;58747;50.674;4.616;2022-07-23T07:06:33;13.20;;;10.10;;
71087;SDS011;58747;50.674;4.616;2022-07-23T07:08:59;13.00;;;10.30;;
71087;SDS011;58747;50.674;4.616;2022-07-23T07:11:24;13.70;;;11.70;;
71087;SDS011;58747;50.674;4.616;2022-07-23T07:13:50;13.23;;;10.47;;
71087;SDS011;58747;50.674;4.616;2022-07-23T07:16:16;12.18;;;10.45;;
71087;SDS011;58747;50.674;4.616;2022-07-23T07:18:41;15.87;;;11.00;;
71087;SDS011;58747;50.674;4.616;2022-07-23T07:21:07;14.17;;;11.00;;
71087;SDS011;58747;50.674;4.616;2022-07-23T07:23:32;13.57;;;11.05;;
71087;SDS011;58747;50.674;4.616;2022-07-23T07:25:57;13.33;;;10.60;;
71087;SDS011;58747;50.674;4.616;2022-07-23T07:28:23;13.70;;;11.00;;
71087;SDS011;58747;50.674;4.616;2022-07-23T07:30:48;15.10;;;11.70;;
71087;SDS011;58747;50.674;4.616;2022-07-23T07:33:13;15.27;;;10.80;;
71087;SDS011;58747;50.674;4.616;2022-07-23T07:35:39;13.23;;;10.20;;
71087;SDS011;58747;50.674;4.616;2022-07-23T07:38:04;13.17;;;10.30;;
71087;SDS011;58747;50.674;4.616;2022-07-23T07:40:30;13.83;;;10.90;;
71087;SDS011;58747;50.674;4.616;2022-07-23T07:42:55;11.20;;;9.87;;
71087;SDS011;58747;50.674;4.616;2022-07-23T07:45:24;12.77;;;9.85;;
71087;SDS011;58747;50.674;4.616;2022-07-23T07:47:51;13.98;;;10.18;;
71087;SDS011;58747;50.674;4.616;2022-07-23T07:50:17;15.13;;;9.07;;
71087;SDS011;58747;50.674;4.616;2022-07-23T07:52:43;11.67;;;9.20;;
71087;SDS011;58747;50.674;4.616;2022-07-23T07:55:09;12.05;;;9.38;;
71087;SDS011;58747;50.674;4.616;2022-07-23T07:57:36;11.10;;;8.65;;
71087;SDS011;58747;50.674;4.616;2022-07-23T08:00:03;11.75;;;9.10;;
71087;SDS011;58747;50.674;4.616;2022-07-23T08:02:39;10.23;;;9.03;;
71087;SDS011;58747;50.674;4.616;2022-07-23T08:05:09;7.93;;;6.45;;
71087;SDS011;58747;50.674;4.616;2022-07-23T08:07:34;10.90;;;8.15;;
71087;SDS011;58747;50.674;4.616;2022-07-23T08:10:00;10.25;;;8.50;;
71087;SDS011;58747;50.674;4.616;2022-07-23T08:12:26;11.20;;;6.83;;
71087;SDS011;58747;50.674;4.616;2022-07-23T08:14:52;8.80;;;7.75;;
71087;SDS011;58747;50.674;4.616;2022-07-23T08:17:18;11.93;;;7.50;;
71087;SDS011;58747;50.674;4.616;2022-07-23T08:19:43;12.20;;;10.27;;
71087;SDS011;58747;50.674;4.616;2022-07-23T08:22:09;10.83;;;9.67;;
71087;SDS011;58747;50.674;4.616;2022-07-23T08:28:45;10.32;;;8.35;;
71087;SDS011;58747;50.674;4.616;2022-07-23T08:35:47;8.07;;;7.15;;
71087;SDS011;58747;50.674;4.616;2022-07-23T08:50:00;15.38;;;9.40;;
71087;SDS011;58747;50.674;4.616;2022-07-23T08:56:11;10.30;;;8.70;;
71087;SDS011;58747;50.674;4.616;2022-07-23T09:06:21;11.77;;;7.97;;
71087;SDS011;58747;50.674;4.616;2022-07-23T09:09:33;10.48;;;7.30;;
71087;SDS011;58747;50.674;4.616;2022-07-23T09:15:57;10.32;;;7.07;;
71087;SDS011;58747;50.674;4.616;2022-07-23T09:23:26;9.25;;;7.53;;
71087;SDS011;58747;50.674;4.616;2022-07-23T09:30:08;8.37;;;7.57;;
71087;SDS011;58747;50.674;4.616;2022-07-23T09:33:14;9.23;;;7.72;;
71087;SDS011;58747;50.674;4.616;2022-07-23T09:48:59;8.82;;;6.97;;
71087;SDS011;58747;50.674;4.616;2022-07-23T09:55:27;7.22;;;6.25;;
71087;SDS011;58747;50.674;4.616;2022-07-23T09:58:28;6.97;;;6.03;;
71087;SDS011;58747;50.674;4.616;2022-07-23T10:00:55;7.37;;;6.63;;
71087;SDS011;58747;50.674;4.616;2022-07-23T10:03:22;6.65;;;6.05;;
71087;SDS011;58747;50.674;4.616;2022-07-23T10:05:48;7.53;;;6.82;;
71087;SDS011;58747;50.674;4.616;2022-07-23T10:08:16;8.75;;;7.85;;
71087;SDS011;58747;50.674;4.616;2022-07-23T10:10:45;9.40;;;6.33;;
71087;SDS011;58747;50.674;4.616;2022-07-23T10:13:12;6.50;;;5.90;;
71087;SDS011;58747;50.674;4.616;2022-07-23T10:15:57;7.82;;;6.68;;
71087;SDS011;58747;50.674;4.616;2022-07-23T10:18:23;7.17;;;6.47;;
71087;SDS011;58747;50.674;4.616;2022-07-23T10:20:48;8.02;;;6.68;;
71087;SDS011;58747;50.674;4.616;2022-07-23T10:23:24;6.80;;;5.53;;
71087;SDS011;58747;50.674;4.616;2022-07-23T10:26:03;5.63;;;4.93;;
71087;SDS011;58747;50.674;4.616;2022-07-23T10:39:22;7.72;;;6.28;;
71087;SDS011;58747;50.674;4.616;2022-07-23T10:41:51;5.55;;;5.10;;
71087;SDS011;58747;50.674;4.616;2022-07-23T10:44:20;6.55;;;5.10;;
71087;SDS011;58747;50.674;4.616;2022-07-23T10:49:30;5.93;;;5.33;;
71087;SDS011;58747;50.674;4.616;2022-07-23T10:54:45;5.95;;;5.32;;
71087;SDS011;58747;50.674;4.616;2022-07-23T10:57:18;5.95;;;5.30;;
71087;SDS011;58747;50.674;4.616;2022-07-23T11:02:33;5.43;;;5.03;;
71087;SDS011;58747;50.674;4.616;2022-07-23T11:05:09;5.97;;;5.47;;
71087;SDS011;58747;50.674;4.616;2022-07-23T11:08:25;6.03;;;5.55;;
71087;SDS011;58747;50.674;4.616;2022-07-23T11:27:08;8.40;;;7.70;;
71087;SDS011;58747;50.674;4.616;2022-07-23T11:34:47;8.02;;;7.43;;
71087;SDS011;58747;50.674;4.616;2022-07-23T11:37:34;8.43;;;7.65;;
71087;SDS011;58747;50.674;4.616;2022-07-23T11:40:08;5.80;;;5.20;;
71087;SDS011;58747;50.674;4.616;2022-07-23T11:42:36;6.03;;;5.43;;
71087;SDS011;58747;50.674;4.616;2022-07-23T11:45:03;6.85;;;6.35;;
71087;SDS011;58747;50.674;4.616;2022-07-23T11:47:33;7.93;;;7.22;;
71087;SDS011;58747;50.674;4.616;2022-07-23T11:49:59;6.63;;;6.13;;
71087;SDS011;58747;50.674;4.616;2022-07-23T11:52:33;6.83;;;6.30;;
71087;SDS011;58747;50.674;4.616;2022-07-23T11:54:59;8.55;;;8.05;;
71087;SDS011;58747;50.674;4.616;2022-07-23T11:57:32;6.85;;;6.35;;
71087;SDS011;58747;50.674;4.616;2022-07-23T12:02:42;7.50;;;6.90;;
71087;SDS011;58747;50.674;4.616;2022-07-23T12:05:13;9.30;;;8.70;;
71087;SDS011;58747;50.674;4.616;2022-07-23T12:07:41;9.23;;;8.57;;
71087;SDS011;58747;50.674;4.616;2022-07-23T12:12:52;9.73;;;9.03;;
71087;SDS011;58747;50.674;4.616;2022-07-23T12:15:34;7.10;;;6.60;;
71087;SDS011;58747;50.674;4.616;2022-07-23T12:18:06;8.70;;;8.05;;
71087;SDS011;58747;50.674;4.616;2022-07-23T12:20:34;8.68;;;7.95;;
71087;SDS011;58747;50.674;4.616;2022-07-23T12:23:04;8.00;;;7.45;;
71087;SDS011;58747;50.674;4.616;2022-07-23T12:25:36;7.20;;;6.63;;
71087;SDS011;58747;50.674;4.616;2022-07-23T12:30:43;9.60;;;9.02;;
71087;SDS011;58747;50.674;4.616;2022-07-23T12:33:14;8.07;;;7.47;;
71087;SDS011;58747;50.674;4.616;2022-07-23T12:35:49;8.95;;;8.43;;
71087;SDS011;58747;50.674;4.616;2022-07-23T12:38:18;5.97;;;5.57;;
71087;SDS011;58747;50.674;4.616;2022-07-23T12:40:48;5.82;;;5.35;;
71087;SDS011;58747;50.674;4.616;2022-07-23T12:43:20;8.02;;;7.43;;
71087;SDS011;58747;50.674;4.616;2022-07-23T12:48:25;8.43;;;7.93;;
71087;SDS011;58747;50.674;4.616;2022-07-23T12:55:53;8.13;;;7.53;;
71087;SDS011;58747;50.674;4.616;2022-07-23T12:58:24;8.40;;;7.90;;
71087;SDS011;58747;50.674;4.616;2022-07-23T13:00:51;6.67;;;6.27;;
71087;SDS011;58747;50.674;4.616;2022-07-23T13:03:37;6.72;;;6.15;;
71087;SDS011;58747;50.674;4.616;2022-07-23T13:06:07;6.95;;;6.13;;
71087;SDS011;58747;50.674;4.616;2022-07-23T13:08:34;7.25;;;6.75;;
71087;SDS011;58747;50.674;4.616;2022-07-23T13:11:04;7.73;;;7.13;;
71087;SDS011;58747;50.674;4.616;2022-07-23T13:13:31;6.55;;;5.70;;
71087;SDS011;58747;50.674;4.616;2022-07-23T13:15:59;6.93;;;5.97;;
71087;SDS011;58747;50.674;4.616;2022-07-23T13:18:28;5.95;;;5.45;;
71087;SDS011;58747;50.674;4.616;2022-07-23T13:20:54;6.30;;;5.80;;
71087;SDS011;58747;50.674;4.616;2022-07-23T13:23:20;5.78;;;5.38;;
71087;SDS011;58747;50.674;4.616;2022-07-23T13:25:46;5.88;;;5.32;;
71087;SDS011;58747;50.674;4.616;2022-07-23T13:28:12;5.13;;;4.67;;
71087;SDS011;58747;50.674;4.616;2022-07-23T13:30:39;6.57;;;5.03;;
71087;SDS011;58747;50.674;4.616;2022-07-23T13:33:05;4.97;;;4.57;;
71087;SDS011;58747;50.674;4.616;2022-07-23T13:35:33;5.63;;;5.13;;
71087;SDS011;58747;50.674;4.616;2022-07-23T13:37:59;5.57;;;5.07;;
71087;SDS011;58747;50.674;4.616;2022-07-23T13:40:24;6.30;;;5.80;;
71087;SDS011;58747;50.674;4.616;2022-07-23T13:42:50;5.93;;;5.43;;
71087;SDS011;58747;50.674;4.616;2022-07-23T13:45:16;5.28;;;4.80;;
71087;SDS011;58747;50.674;4.616;2022-07-23T13:47:41;5.87;;;5.47;;
71087;SDS011;58747;50.674;4.616;2022-07-23T13:50:07;5.63;;;5.10;;
71087;SDS011;58747;50.674;4.616;2022-07-23T13:52:33;5.77;;;5.37;;
71087;SDS011;58747;50.674;4.616;2022-07-23T13:54:59;5.57;;;4.50;;
71087;SDS011;58747;50.674;4.616;2022-07-23T13:57:27;5.93;;;5.53;;
71087;SDS011;58747;50.674;4.616;2022-07-23T13:59:52;5.50;;;5.00;;
71087;SDS011;58747;50.674;4.616;2022-07-23T14:02:18;5.73;;;5.23;;
71087;SDS011;58747;50.674;4.616;2022-07-23T14:04:43;5.30;;;4.80;;
71087;SDS011;58747;50.674;4.616;2022-07-23T14:07:09;4.40;;;4.00;;
71087;SDS011;58747;50.674;4.616;2022-07-23T14:09:35;4.85;;;4.45;;
71087;SDS011;58747;50.674;4.616;2022-07-23T14:12:01;6.63;;;6.03;;
71087;SDS011;58747;50.674;4.616;2022-07-23T14:14:26;5.60;;;5.20;;
71087;SDS011;58747;50.674;4.616;2022-07-23T14:16:52;5.37;;;4.87;;
71087;SDS011;58747;50.674;4.616;2022-07-23T14:19:17;5.68;;;5.22;;
71087;SDS011;58747;50.674;4.616;2022-07-23T14:21:43;5.50;;;5.10;;
71087;SDS011;58747;50.674;4.616;2022-07-23T14:24:09;5.85;;;5.30;;
71087;SDS011;58747;50.674;4.616;2022-07-23T14:26:34;5.80;;;5.17;;
71087;SDS011;58747;50.674;4.616;2022-07-23T14:29:00;5.40;;;5.00;;
71087;SDS011;58747;50.674;4.616;2022-07-23T14:31:26;6.18;;;5.68;;
71087;SDS011;58747;50.674;4.616;2022-07-23T14:33:52;5.10;;;4.65;;
71087;SDS011;58747;50.674;4.616;2022-07-23T14:36:17;5.47;;;4.97;;
71087;SDS011;58747;50.674;4.616;2022-07-23T14:38:43;6.13;;;5.17;;
71087;SDS011;58747;50.674;4.616;2022-07-23T14:41:08;5.55;;;5.15;;
71087;SDS011;58747;50.674;4.616;2022-07-23T14:43:34;5.13;;;4.63;;
71087;SDS011;58747;50.674;4.616;2022-07-23T14:46:00;5.30;;;4.78;;
71087;SDS011;58747;50.674;4.616;2022-07-23T14:48:25;5.20;;;4.80;;
71087;SDS011;58747;50.674;4.616;2022-07-23T14:50:51;5.30;;;4.90;;
71087;SDS011;58747;50.674;4.616;2022-07-23T14:53:16;5.03;;;4.53;;
71087;SDS011;58747;50.674;4.616;2022-07-23T14:55:42;5.53;;;5.03;;
71087;SDS011;58747;50.674;4.616;2022-07-23T14:58:07;4.83;;;4.50;;
71087;SDS011;58747;50.674;4.616;2022-07-23T15:00:33;8.10;;;5.28;;
71087;SDS011;58747;50.674;4.616;2022-07-23T15:02:59;5.30;;;4.80;;
71087;SDS011;58747;50.674;4.616;2022-07-23T15:05:24;6.38;;;5.55;;
71087;SDS011;58747;50.674;4.616;2022-07-23T15:07:49;6.47;;;5.87;;
71087;SDS011;58747;50.674;4.616;2022-07-23T15:10:15;5.43;;;4.90;;
71087;SDS011;58747;50.674;4.616;2022-07-23T15:12:41;5.53;;;5.13;;
71087;SDS011;58747;50.674;4.616;2022-07-23T15:15:06;5.23;;;4.73;;
71087;SDS011;58747;50.674;4.616;2022-07-23T15:17:32;4.93;;;4.53;;
71087;SDS011;58747;50.674;4.616;2022-07-23T15:19:58;5.88;;;5.38;;
71087;SDS011;58747;50.674;4.616;2022-07-23T15:22:23;5.60;;;5.20;;
71087;SDS011;58747;50.674;4.616;2022-07-23T15:24:48;5.37;;;4.97;;
71087;SDS011;58747;50.674;4.616;2022-07-23T15:27:14;6.05;;;5.40;;
71087;SDS011;58747;50.674;4.616;2022-07-23T15:29:41;5.67;;;5.17;;
71087;SDS011;58747;50.674;4.616;2022-07-23T15:32:06;6.00;;;5.45;;
71087;SDS011;58747;50.674;4.616;2022-07-23T15:34:32;6.13;;;5.63;;
71087;SDS011;58747;50.674;4.616;2022-07-23T15:37:00;6.53;;;5.93;;
71087;SDS011;58747;50.674;4.616;2022-07-23T15:39:26;6.10;;;5.60;;
71087;SDS011;58747;50.674;4.616;2022-07-23T15:41:52;6.67;;;6.10;;
71087;SDS011;58747;50.674;4.616;2022-07-23T15:44:18;5.95;;;5.43;;
71087;SDS011;58747;50.674;4.616;2022-07-23T15:46:43;6.93;;;6.30;;
71087;SDS011;58747;50.674;4.616;2022-07-23T15:49:09;6.30;;;5.80;;
71087;SDS011;58747;50.674;4.616;2022-07-23T15:51:34;5.90;;;5.50;;
71087;SDS011;58747;50.674;4.616;2022-07-23T15:53:59;6.93;;;5.33;;
71087;SDS011;58747;50.674;4.616;2022-07-23T15:56:25;6.10;;;5.50;;
71087;SDS011;58747;50.674;4.616;2022-07-23T15:58:50;6.13;;;5.63;;
71087;SDS011;58747;50.674;4.616;2022-07-23T16:01:16;5.67;;;5.13;;
71087;SDS011;58747;50.674;4.616;2022-07-23T16:03:41;6.40;;;5.90;;
71087;SDS011;58747;50.674;4.616;2022-07-23T16:06:07;6.60;;;6.10;;
71087;SDS011;58747;50.674;4.616;2022-07-23T16:08:32;6.53;;;6.00;;
71087;SDS011;58747;50.674;4.616;2022-07-23T16:10:58;5.90;;;5.20;;
71087;SDS011;58747;50.674;4.616;2022-07-23T16:13:24;6.77;;;6.00;;
71087;SDS011;58747;50.674;4.616;2022-07-23T17:20:42;5.68;;;5.18;;
71087;SDS011;58747;50.674;4.616;2022-07-23T17:24:06;5.97;;;5.47;;
71087;SDS011;58747;50.674;4.616;2022-07-23T17:48:47;5.72;;;5.15;;
71087;SDS011;58747;50.674;4.616;2022-07-23T19:29:38;6.95;;;6.35;;
71087;SDS011;58747;50.674;4.616;2022-07-23T19:39:04;5.70;;;5.20;;
71087;SDS011;58747;50.674;4.616;2022-07-23T19:41:29;5.80;;;5.40;;
71087;SDS011;58747;50.674;4.616;2022-07-23T19:43:55;5.90;;;5.30;;